Terminal Aerodrome Forecast
Issued by NWS Paducah, KY

Home | Current Version | Previous Version | Text Only | Print | Product List | Glossary On
Versions: 1 2 3 4 5 6 7 8 9 10 11 12 13 14 15 16 17 18 19
353
FTUS43 KPAH 090531
TAFEVV
TAF
KEVV 090531Z 0906/1006 31006KT P6SM OVC035
     FM091100 30007KT P6SM SCT200
     FM100000 00000KT P6SM SCT200=

USA.gov is the U.S. government's official web portal to all federal, state and local government web resources and services.